Flugplatz Schmoldow

EDBY · Mecklenburg-Vorpommern, Alemanha

História da METAR EDBY · Flugplatz Schmoldow

Abaixo você vê METARs dos últimos dias. Selecione um ano para navegar pelos METARs mais antigos, a partir do ano 2007.

20 de junho de 2024

Hora Código Clima Temp. Visibilidade Tecto Vento METAR/SPECI
11:20
V
18 °C 10 km+ - 220° 220° 7 kt METAR EDAH 200920Z 22007KT 190V260 CAVOK 18/10 Q1022
10:50
V
17 °C 10 km+ - 310° 310° 6 kt METAR EDAH 200850Z 31006KT 240V020 CAVOK 17/09 Q1022
10:20
V
16 °C 10 km+ - 270° 270° 7 kt METAR EDAH 200820Z 27007KT 230V310 9999 FEW025 16/09 Q1022
09:50
V
16 °C 10 km+ - 260° 260° 9 kt METAR EDAH 200750Z 26009KT 210V290 9999 FEW024 16/10 Q1022
09:20
V
15 °C 10 km+ - 290° 290° 7 kt METAR EDAH 200720Z 29007KT 250V350 9999 FEW022 15/10 Q1022
08:50
M
14 °C 10 km+ 1.800 ft 270° 270° 10 kt METAR EDAH 200650Z 27010KT 9999 BKN018 14/10 Q1023
08:20
V
14 °C 10 km+ - 270° 270° 13 kt METAR EDAH 200620Z AUTO 27013KT 9999 // FEW015/// SCT018/// 14/10 Q1023
07:50
V
14 °C 10 km+ - 270° 270° 10 kt METAR EDAH 200550Z AUTO 27010KT 9999 // FEW017/// 14/10 Q1022
07:20
V
13 °C 10 km+ - 260° 260° 9 kt METAR EDAH 200520Z AUTO 26009KT 9999 // NCD 13/10 Q1022
06:50
V
13 °C 10 km+ - 260° 260° 8 kt METAR EDAH 200450Z AUTO 26008KT 220V280 9999 // NCD 13/11 Q1022
06:20
V
12 °C 10 km+ - 250° 250° 9 kt METAR EDAH 200420Z AUTO 25009KT 9999 // NCD 12/10 Q1021
05:50
V
10 °C 10 km+ - Var Var 2 kt METAR EDAH 200350Z AUTO VRB02KT 9999 // NCD 10/09 Q1021
05:20
V
10 °C 10 km+ - 300° 300° 2 kt METAR EDAH 200320Z AUTO 30002KT 9999 // NCD 10/09 Q1021
04:50
V
10 °C 10 km+ - 280° 280° 4 kt METAR EDAH 200250Z AUTO 28004KT 9999 // NCD 10/08 Q1021
04:20
V
9 °C 10 km+ - 280° 280° 6 kt METAR EDAH 200220Z AUTO 28006KT 9999 // NCD 09/08 Q1021
03:50
V
11 °C 10 km+ - 300° 300° 6 kt METAR EDAH 200150Z AUTO 30006KT 9999 // NCD 11/09 Q1020
03:20
V
10 °C 10 km+ - 280° 280° 6 kt METAR EDAH 200120Z AUTO 28006KT 9999 // NCD 10/09 Q1021
02:50
V
10 °C 10 km+ - 270° 270° 7 kt METAR EDAH 200050Z AUTO 27007KT 9999 // NCD 10/09 Q1020
02:20
V
11 °C 10 km+ - 290° 290° 5 kt METAR EDAH 200020Z AUTO 29005KT 9999 // NCD 11/10 Q1020
01:50
V
11 °C 10 km+ - 280° 280° 6 kt METAR EDAH 192350Z AUTO 28006KT 9999 // NCD 11/10 Q1020
01:20
V
12 °C 10 km+ - 280° 280° 5 kt METAR EDAH 192320Z AUTO 28005KT 9999 // NCD 12/10 Q1020
00:50
V
12 °C 10 km+ - 280° 280° 6 kt METAR EDAH 192250Z AUTO 28006KT 9999 // NCD 12/10 Q1020
00:20
V
13 °C 10 km+ - 290° 290° 7 kt METAR EDAH 192220Z AUTO 29007KT 9999 // NCD 13/10 Q1019

19 de junho de 2024

Hora Código Clima Temp. Visibilidade Tecto Vento METAR/SPECI
23:50
V
13 °C 10 km+ - 280° 280° 7 kt METAR EDAH 192150Z AUTO 28007KT 9999 // NCD 13/10 Q1019
23:20
V
13 °C 10 km+ - 280° 280° 7 kt METAR EDAH 192120Z AUTO 28007KT 9999 // NCD 13/10 Q1019
22:50
V
13 °C 10 km+ - 280° 280° 6 kt METAR EDAH 192050Z AUTO 28006KT 9999 // NCD 13/09 Q1019
22:20
V
13 °C 10 km+ - 280° 280° 6 kt METAR EDAH 192020Z AUTO 28006KT 9999 // NCD 13/10 Q1019
21:50
V
14 °C 10 km+ - 290° 290° 6 kt METAR EDAH 191950Z AUTO 29006KT 9999 // NCD 14/10 Q1018
21:20
V
15 °C 10 km+ - 280° 280° 8 kt METAR EDAH 191920Z AUTO 28008KT 9999 // NCD 15/10 Q1018
20:50
V
16 °C 10 km+ - 280° 280° 7 kt METAR EDAH 191850Z AUTO 28007KT 9999 // NCD 16/09 Q1017
20:20
V
17 °C 10 km+ - 280° 280° 9 kt METAR EDAH 191820Z AUTO 28009KT 9999 // NCD 17/09 Q1017
19:50
V
17 °C 10 km+ - 290° 290° 10 kt METAR EDAH 191750Z AUTO 29010KT 9999 // NCD 17/09 Q1017
19:20
V
18 °C 10 km+ - 290° 290° 12 kt METAR EDAH 191720Z AUTO 29012KT 9999 // NCD 18/09 Q1017
18:50
V
18 °C 10 km+ - 290° 290° 12 kt METAR EDAH 191650Z 29012KT 9999 FEW043 18/08 Q1017
18:20
V
19 °C 10 km+ 4.700 ft 290° 290° 9 kt METAR EDAH 191620Z 29009KT 9999 BKN047 19/10 Q1016
17:50
V
18 °C 10 km+ - 290° 290° 11 kt METAR EDAH 191550Z 29011KT 270V330 CAVOK 18/09 Q1016
17:20
V
18 °C 10 km+ - 320° 320° 8 kt METAR EDAH 191520Z 32008KT 280V360 9999 FEW039 18/10 Q1016
16:50
V
19 °C 10 km+ - 310° 310° 8 kt METAR EDAH 191450Z 31008KT 270V360 9999 SCT037 19/11 Q1016
16:20
V
18 °C 10 km+ 3.400 ft 310° 310° 6 kt METAR EDAH 191420Z 31006KT 270V360 9999 BKN034 18/11 Q1016
15:50
V
18 °C 10 km+ 3.300 ft 290° 290° 7 kt METAR EDAH 191350Z 29007KT 250V340 9999 BKN033 18/11 Q1016
15:20
V
17 °C 10 km+ - 310° 310° 6 kt METAR EDAH 191320Z 31006KT 270V350 9999 FEW024 17/11 Q1016
14:50
M
17 °C 10 km+ 2.400 ft 310° 310° 7 kt METAR EDAH 191250Z 31007KT 280V350 9999 BKN024 17/12 Q1016
14:20
V
17 °C 10 km+ - 320° 320° 6 kt METAR EDAH 191220Z 32006KT 270V360 9999 FEW024 17/12 Q1015
13:50
V
16 °C 10 km+ - 310° 310° 6 kt METAR EDAH 191150Z 31006KT 280V350 9999 SCT021 16/12 Q1015
13:20
V
17 °C 10 km+ 4.700 ft 320° 320° 4 kt METAR EDAH 191120Z 32004KT 280V010 9999 FEW021 SCT040 OVC047 17/13 Q1015
12:50
V
16 °C 10 km+ 4.300 ft Var Var 2 kt METAR EDAH 191050Z VRB02KT 9999 FEW013 BKN043 16/14 Q1015
12:20
M
16 °C 10 km+ 2.100 ft 350° 350° 5 kt METAR EDAH 191020Z 35005KT 310V030 9999 SCT014 BKN021 16/14 Q1014
11:50
M
17 °C 10 km+ 1.700 ft 280° 280° 9 kt METAR EDAH 190950Z 28009KT 250V310 9999 FEW014 BKN017 17/14 Q1014
11:20
M
17 °C 10 km+ 1.500 ft 300° 300° 6 kt METAR EDAH 190920Z 30006KT 260V340 9999 BKN015 17/14 Q1014
10:50
V
16 °C 10 km+ - 300° 300° 7 kt METAR EDAH 190850Z 30007KT 270V350 9999 FEW010 SCT014 16/13 Q1014
10:20
V
16 °C 10 km+ - 290° 290° 6 kt METAR EDAH 190820Z 29006KT 260V350 9999 SCT008 16/14 Q1014
09:50
V
15 °C 10 km+ - 290° 290° 6 kt METAR EDAH 190750Z 29006KT 9999 SCT007 15/15 Q1013
09:20
M
15 °C 10 km+ 1.400 ft 290° 290° 8 kt METAR EDAH 190720Z 29008KT 9999 -RA SCT005 BKN014 OVC045 15/14 Q1013
08:50
M
14 °C 10 km+ 2.500 ft 290° 290° 7 kt METAR EDAH 190650Z 29007KT 260V330 9999 -RA SCT005 OVC025 14/14 Q1013
08:20
M
14 °C 10 km+ 2.000 ft 280° 280° 7 kt METAR EDAH 190620Z AUTO 28007KT 9999 // SCT004/// OVC020/// 14/14 Q1012
07:50
L
14 °C 9 km 400 ft 270° 270° 6 kt METAR EDAH 190550Z AUTO 27006KT 9000 // BKN004/// BKN015/// OVC020/// 14/14 Q1012
07:20
V
14 °C 10 km+ 6.800 ft 300° 300° 3 kt METAR EDAH 190520Z AUTO 30003KT 270V330 9999 // SCT051/// OVC068/// 14/14 Q1012
06:50
V
14 °C 9 km 4.200 ft 330° 330° 3 kt METAR EDAH 190450Z AUTO 33003KT 300V360 9000 // FEW028/// BKN042/// OVC053/// 14/13 Q1011
06:20
V
13 °C 10 km+ 4.100 ft 320° 320° 2 kt METAR EDAH 190420Z AUTO 32002KT 9999 // SCT004/// BKN041/// OVC063/// 13/13 Q1011
05:50
L
13 °C 10 km+ 400 ft 350° 350° 3 kt METAR EDAH 190350Z AUTO 35003KT 320V030 9999 // BKN004/// BKN009/// OVC061/// 13/13 Q1011
05:20
V
13 °C 10 km+ 3.500 ft 360° 360° 4 kt METAR EDAH 190320Z AUTO 36004KT 340V040 9999 // SCT005/// BKN035/// OVC058/// 13/13 Q1011
04:50
M
13 °C 10 km+ 1.200 ft 020° 020° 5 kt METAR EDAH 190250Z AUTO 02005KT 9999 // FEW006/// BKN012/// OVC053/// 13/12 Q1011
04:20
M
13 °C 7 km 3.900 ft 020° 020° 8 kt METAR EDAH 190220Z AUTO 02008KT 360V070 7000 // FEW005/// OVC039/// 13/12 Q1011
03:50
V
13 °C 10 km+ 3.600 ft 010° 010° 6 kt METAR EDAH 190150Z AUTO 01006KT 9999 // FEW010/// OVC036/// 13/12 Q1011
03:20
V
13 °C 10 km+ 3.500 ft 020° 020° 8 kt METAR EDAH 190120Z AUTO 02008KT 360V060 9999 // FEW009/// OVC035/// 13/12 Q1010
02:50
V
13 °C 10 km+ 3.400 ft 020° 020° 8 kt METAR EDAH 190050Z AUTO 02008KT 9999 // FEW008/// OVC034/// 13/12 Q1010
02:20
I
14 °C 10 km+ 700 ft 020° 020° 7 kt METAR EDAH 190020Z AUTO 02007KT 350V050 9999 // BKN007/// OVC033/// 14/13 Q1011
01:50
V
14 °C 10 km+ 3.200 ft 020° 020° 5 kt METAR EDAH 182350Z AUTO 02005KT 350V070 9999 // SCT007/// OVC032/// 14/14 Q1011
01:20
V
14 °C 10 km+ 3.500 ft 050° 050° 10 kt METAR EDAH 182320Z AUTO 05010KT 9999 // FEW007/// SCT030/// OVC035/// 14/14 Q1011
00:50
I
14 °C 4,6 km 3.400 ft Var Var 6 kt METAR EDAH 182250Z AUTO VRB06KT 4600 // SCT010/// SCT029/// OVC034/// 14/14 Q1011
00:20
M
15 °C 10 km+ 2.300 ft 300° 300° 9 kt METAR EDAH 182220Z AUTO 30009KT 270V350 9999 // SCT007/// BKN023/// OVC059/// 15/14 Q1012

18 de junho de 2024

Hora Código Clima Temp. Visibilidade Tecto Vento METAR/SPECI
23:50
V
14 °C 10 km+ 3.200 ft 050° 050° 10 kt METAR EDAH 182150Z AUTO 05010KT 9999 // FEW008/// OVC032/// 14/14 Q1010
23:20
V
15 °C 10 km+ 3.800 ft 060° 060° 11 kt METAR EDAH 182120Z AUTO 06011KT 9999 // FEW006/// SCT030/// OVC038/// 15/14 Q1011
22:50
V
14 °C 8 km 3.200 ft 070° 070° 13 kt METAR EDAH 182050Z AUTO 07013KT 8000 // FEW006/// OVC032/// 14/14 Q1011
22:20
M
14 °C 5 km 6.200 ft 030° 030° 10 kt METAR EDAH 182020Z AUTO 03010KT 5000 // SCT034/// OVC062/// 14/14 Q1011
21:50
V
15 °C 10 km+ 5.400 ft 060° 060° 9 kt METAR EDAH 181950Z AUTO 06009KT 9999 // FEW018/// SCT029/// OVC054/// 15/14 Q1012
21:20
M
15 °C 7 km 3.900 ft 060° 060° 12 kt METAR EDAH 181920Z AUTO 06012KT 7000 // BKN039/// OVC069/// 15/14 Q1012
20:50
V
16 °C 10 km+ 4.600 ft 030° 030° 8 kt METAR EDAH 181850Z AUTO 03008KT 360V060 9999 // FEW016/// BKN046/// OVC052/// 16/14 Q1012
20:20
V
18 °C 10 km+ 7.000 ft 050° 050° 9 kt METAR EDAH 181820Z AUTO 05009KT 9999 // OVC070/// 18/13 Q1012
19:50
V
18 °C 10 km+ 10.000 ft 050° 050° 8 kt METAR EDAH 181750Z AUTO 05008KT 9999 // FEW087/// BKN100/// OVC130/// 18/13 Q1013
19:20
V
18 °C 10 km+ 17.000 ft 050° 050° 9 kt METAR EDAH 181720Z AUTO 05009KT 9999 // FEW100/// BKN170/// 18/13 Q1013
18:50
V
18 °C 10 km+ - 050° 050° 9 kt METAR EDAH 181650Z 05009KT CAVOK 18/13 Q1013
18:20
V
18 °C 10 km+ - 050° 050° 9 kt METAR EDAH 181620Z 05009KT CAVOK 18/14 Q1014
17:50
V
19 °C 10 km+ - 040° 040° 8 kt METAR EDAH 181550Z 04008KT 010V070 CAVOK 19/14 Q1014
17:20
V
20 °C 10 km+ - 030° 030° 8 kt METAR EDAH 181520Z 03008KT 010V070 CAVOK 20/14 Q1014
16:50
V
21 °C 10 km+ - 050° 050° 8 kt METAR EDAH 181450Z 05008KT 010V080 CAVOK 21/15 Q1015
16:20
V
21 °C 10 km+ - 050° 050° 8 kt METAR EDAH 181420Z 05008KT 020V080 9999 FEW036 21/15 Q1015
15:50
V
21 °C 10 km+ - 060° 060° 9 kt METAR EDAH 181350Z 06009KT 020V080 CAVOK 21/15 Q1015
15:20
V
22 °C 10 km+ - 040° 040° 5 kt METAR EDAH 181320Z 04005KT 350V090 9999 FEW038 22/15 Q1015
14:50
V
21 °C 10 km+ - 030° 030° 6 kt METAR EDAH 181250Z 03006KT 350V070 9999 FEW039 21/15 Q1015
14:20
V
21 °C 10 km+ - 030° 030° 7 kt METAR EDAH 181220Z 03007KT 350V070 9999 SCT032 21/14 Q1015
13:50
V
21 °C 10 km+ - 040° 040° 4 kt METAR EDAH 181150Z 04004KT 350V090 9999 SCT035 SCT049 21/15 Q1015
13:20
V
23 °C 10 km+ - Var Var 4 kt METAR EDAH 181120Z VRB04KT 9999 FEW031 23/15 Q1015
12:50
V
21 °C 10 km+ - 050° 050° 6 kt METAR EDAH 181050Z 05006KT 360V080 9999 FEW037 21/15 Q1016
12:20
V
22 °C 10 km+ - 200° 200° 8 kt METAR EDAH 181020Z 20008KT 170V230 9999 FEW031 22/15 Q1016
11:50
V
21 °C 10 km+ - 200° 200° 7 kt METAR EDAH 180950Z 20007KT 170V230 9999 SCT034 21/14 Q1016
11:20
V
21 °C 10 km+ - 210° 210° 8 kt METAR EDAH 180920Z 21008KT 190V250 CAVOK 21/15 Q1016
10:50
V
21 °C 10 km+ - 220° 220° 9 kt METAR EDAH 180850Z 22009KT 9999 FEW026 21/15 Q1016
10:20
V
20 °C 10 km+ - 210° 210° 8 kt METAR EDAH 180820Z 21008KT 9999 FEW023 20/15 Q1016
09:50
V
19 °C 10 km+ - Var Var 4 kt METAR EDAH 180750Z VRB04KT 9999 FEW021 SCT035 19/16 Q1015
09:20
V
19 °C 10 km+ - 270° 270° 5 kt METAR EDAH 180720Z 27005KT 230V320 9999 FEW014 19/15 Q1015
08:50
V
19 °C 10 km+ - 260° 260° 5 kt METAR EDAH 180650Z 26005KT CAVOK 19/16 Q1015
08:20
V
18 °C 10 km+ - 260° 260° 4 kt METAR EDAH 180620Z AUTO 26004KT 230V310 9999 // NCD 18/15 Q1015
07:50
V
17 °C 10 km+ - 250° 250° 7 kt METAR EDAH 180550Z AUTO 25007KT 9999 // SCT073/// 17/15 Q1015
Relatar uma mudança